sensor_id;sensor_type;location;lat;lon;timestamp;P1;durP1;ratioP1;P2;durP2;ratioP2
72427;SDS011;60419;48.880;18.036;2022-09-09T00:00:31;2.17;;;1.20;;
72427;SDS011;60419;48.880;18.036;2022-09-09T00:03:24;2.33;;;1.40;;
72427;SDS011;60419;48.880;18.036;2022-09-09T00:06:15;3.05;;;1.45;;
72427;SDS011;60419;48.880;18.036;2022-09-09T00:12:11;3.88;;;1.33;;
72427;SDS011;60419;48.880;18.036;2022-09-09T00:15:20;1.95;;;1.10;;
72427;SDS011;60419;48.880;18.036;2022-09-09T00:18:15;1.52;;;1.10;;
72427;SDS011;60419;48.880;18.036;2022-09-09T00:21:14;3.30;;;1.23;;
72427;SDS011;60419;48.880;18.036;2022-09-09T00:24:23;2.05;;;1.15;;
72427;SDS011;60419;48.880;18.036;2022-09-09T00:30:21;2.50;;;1.27;;
72427;SDS011;60419;48.880;18.036;2022-09-09T00:33:12;4.20;;;1.45;;
72427;SDS011;60419;48.880;18.036;2022-09-09T00:36:00;3.95;;;1.42;;
72427;SDS011;60419;48.880;18.036;2022-09-09T00:38:49;4.50;;;1.63;;
72427;SDS011;60419;48.880;18.036;2022-09-09T00:41:45;4.88;;;1.50;;
72427;SDS011;60419;48.880;18.036;2022-09-09T00:45:01;2.97;;;1.30;;
72427;SDS011;60419;48.880;18.036;2022-09-09T00:47:58;4.15;;;1.65;;
72427;SDS011;60419;48.880;18.036;2022-09-09T00:56:18;4.63;;;1.80;;
72427;SDS011;60419;48.880;18.036;2022-09-09T01:02:28;3.25;;;1.30;;
72427;SDS011;60419;48.880;18.036;2022-09-09T01:05:27;4.97;;;1.50;;
72427;SDS011;60419;48.880;18.036;2022-09-09T01:14:49;4.60;;;1.70;;
72427;SDS011;60419;48.880;18.036;2022-09-09T01:20:42;3.17;;;1.70;;
72427;SDS011;60419;48.880;18.036;2022-09-09T01:26:45;8.82;;;2.88;;
72427;SDS011;60419;48.880;18.036;2022-09-09T01:29:31;5.60;;;2.28;;
72427;SDS011;60419;48.880;18.036;2022-09-09T01:32:37;5.70;;;2.60;;
72427;SDS011;60419;48.880;18.036;2022-09-09T01:38:26;3.85;;;2.17;;
72427;SDS011;60419;48.880;18.036;2022-09-09T01:41:13;3.75;;;1.98;;
72427;SDS011;60419;48.880;18.036;2022-09-09T01:43:58;4.85;;;2.40;;
72427;SDS011;60419;48.880;18.036;2022-09-09T01:46:44;4.68;;;1.85;;
72427;SDS011;60419;48.880;18.036;2022-09-09T01:49:29;2.72;;;1.83;;
72427;SDS011;60419;48.880;18.036;2022-09-09T01:52:15;4.22;;;1.77;;
72427;SDS011;60419;48.880;18.036;2022-09-09T01:55:01;7.70;;;2.45;;
72427;SDS011;60419;48.880;18.036;2022-09-09T01:57:56;3.72;;;1.85;;
72427;SDS011;60419;48.880;18.036;2022-09-09T02:00:55;3.80;;;1.85;;
72427;SDS011;60419;48.880;18.036;2022-09-09T02:03:57;4.32;;;1.65;;
72427;SDS011;60419;48.880;18.036;2022-09-09T02:06:47;4.00;;;1.77;;
72427;SDS011;60419;48.880;18.036;2022-09-09T02:09:35;4.22;;;1.80;;
72427;SDS011;60419;48.880;18.036;2022-09-09T02:12:21;4.97;;;2.20;;
72427;SDS011;60419;48.880;18.036;2022-09-09T02:15:32;7.43;;;1.85;;
72427;SDS011;60419;48.880;18.036;2022-09-09T02:18:32;5.78;;;1.60;;
72427;SDS011;60419;48.880;18.036;2022-09-09T02:21:23;5.55;;;1.77;;
72427;SDS011;60419;48.880;18.036;2022-09-09T02:24:10;5.55;;;2.10;;
72427;SDS011;60419;48.880;18.036;2022-09-09T02:26:59;4.65;;;2.53;;
72427;SDS011;60419;48.880;18.036;2022-09-09T02:29:49;6.28;;;2.80;;
72427;SDS011;60419;48.880;18.036;2022-09-09T02:32:38;4.03;;;2.35;;
72427;SDS011;60419;48.880;18.036;2022-09-09T02:35:27;4.43;;;2.30;;
72427;SDS011;60419;48.880;18.036;2022-09-09T02:38:15;7.10;;;2.72;;
72427;SDS011;60419;48.880;18.036;2022-09-09T02:41:01;3.72;;;2.45;;
72427;SDS011;60419;48.880;18.036;2022-09-09T02:43:47;4.53;;;2.53;;
72427;SDS011;60419;48.880;18.036;2022-09-09T02:49:57;4.30;;;2.70;;
72427;SDS011;60419;48.880;18.036;2022-09-09T02:53:00;5.07;;;2.58;;
72427;SDS011;60419;48.880;18.036;2022-09-09T02:55:59;3.78;;;2.10;;
72427;SDS011;60419;48.880;18.036;2022-09-09T02:58:54;3.90;;;2.00;;
72427;SDS011;60419;48.880;18.036;2022-09-09T03:01:39;4.18;;;2.00;;
72427;SDS011;60419;48.880;18.036;2022-09-09T03:04:25;4.75;;;2.58;;
72427;SDS011;60419;48.880;18.036;2022-09-09T03:07:11;6.60;;;2.30;;
72427;SDS011;60419;48.880;18.036;2022-09-09T03:09:57;4.13;;;2.05;;
72427;SDS011;60419;48.880;18.036;2022-09-09T03:12:43;4.20;;;2.50;;
72427;SDS011;60419;48.880;18.036;2022-09-09T03:15:28;5.00;;;3.17;;
72427;SDS011;60419;48.880;18.036;2022-09-09T03:18:15;7.22;;;3.45;;
72427;SDS011;60419;48.880;18.036;2022-09-09T03:21:00;6.20;;;3.13;;
72427;SDS011;60419;48.880;18.036;2022-09-09T03:23:46;5.43;;;3.03;;
72427;SDS011;60419;48.880;18.036;2022-09-09T03:26:32;4.72;;;2.53;;
72427;SDS011;60419;48.880;18.036;2022-09-09T03:29:18;6.68;;;3.42;;
72427;SDS011;60419;48.880;18.036;2022-09-09T03:32:03;7.55;;;3.13;;
72427;SDS011;60419;48.880;18.036;2022-09-09T03:34:49;6.32;;;2.80;;
72427;SDS011;60419;48.880;18.036;2022-09-09T03:37:37;5.45;;;2.60;;
72427;SDS011;60419;48.880;18.036;2022-09-09T03:40:23;5.15;;;2.60;;
72427;SDS011;60419;48.880;18.036;2022-09-09T03:43:09;7.65;;;3.13;;
72427;SDS011;60419;48.880;18.036;2022-09-09T03:45:54;5.10;;;2.50;;
72427;SDS011;60419;48.880;18.036;2022-09-09T03:48:43;6.43;;;2.88;;
72427;SDS011;60419;48.880;18.036;2022-09-09T03:51:29;8.18;;;2.70;;
72427;SDS011;60419;48.880;18.036;2022-09-09T03:54:14;7.63;;;3.45;;
72427;SDS011;60419;48.880;18.036;2022-09-09T03:56:59;5.53;;;3.35;;
72427;SDS011;60419;48.880;18.036;2022-09-09T03:59:45;5.93;;;3.30;;
72427;SDS011;60419;48.880;18.036;2022-09-09T04:02:30;5.65;;;3.13;;
72427;SDS011;60419;48.880;18.036;2022-09-09T04:05:16;7.82;;;3.92;;
72427;SDS011;60419;48.880;18.036;2022-09-09T04:08:01;9.57;;;4.45;;
72427;SDS011;60419;48.880;18.036;2022-09-09T04:10:47;11.82;;;6.22;;
72427;SDS011;60419;48.880;18.036;2022-09-09T04:13:34;10.35;;;7.07;;
72427;SDS011;60419;48.880;18.036;2022-09-09T04:16:22;13.40;;;7.80;;
72427;SDS011;60419;48.880;18.036;2022-09-09T04:19:08;13.90;;;9.02;;
72427;SDS011;60419;48.880;18.036;2022-09-09T04:21:53;10.48;;;7.70;;
72427;SDS011;60419;48.880;18.036;2022-09-09T04:24:38;12.52;;;8.10;;
72427;SDS011;60419;48.880;18.036;2022-09-09T04:27:24;9.52;;;7.00;;
72427;SDS011;60419;48.880;18.036;2022-09-09T04:30:09;9.32;;;6.90;;
72427;SDS011;60419;48.880;18.036;2022-09-09T04:32:56;9.20;;;5.80;;
72427;SDS011;60419;48.880;18.036;2022-09-09T04:35:48;8.65;;;6.28;;
72427;SDS011;60419;48.880;18.036;2022-09-09T04:38:35;10.45;;;6.53;;
72427;SDS011;60419;48.880;18.036;2022-09-09T04:41:21;10.05;;;5.85;;
72427;SDS011;60419;48.880;18.036;2022-09-09T04:44:06;9.32;;;6.57;;
72427;SDS011;60419;48.880;18.036;2022-09-09T04:46:51;10.15;;;7.10;;
72427;SDS011;60419;48.880;18.036;2022-09-09T04:49:37;8.50;;;6.22;;
72427;SDS011;60419;48.880;18.036;2022-09-09T04:52:23;11.57;;;6.53;;
72427;SDS011;60419;48.880;18.036;2022-09-09T04:55:09;9.82;;;6.18;;
72427;SDS011;60419;48.880;18.036;2022-09-09T04:57:54;7.88;;;6.30;;
72427;SDS011;60419;48.880;18.036;2022-09-09T05:00:40;6.57;;;5.22;;
72427;SDS011;60419;48.880;18.036;2022-09-09T05:03:25;7.15;;;5.07;;
72427;SDS011;60419;48.880;18.036;2022-09-09T05:06:12;7.53;;;5.07;;
72427;SDS011;60419;48.880;18.036;2022-09-09T05:09:00;10.80;;;4.95;;
72427;SDS011;60419;48.880;18.036;2022-09-09T05:11:45;8.27;;;5.43;;
72427;SDS011;60419;48.880;18.036;2022-09-09T05:14:31;9.13;;;5.65;;
72427;SDS011;60419;48.880;18.036;2022-09-09T05:17:16;7.88;;;5.88;;
72427;SDS011;60419;48.880;18.036;2022-09-09T05:20:02;9.90;;;6.32;;
72427;SDS011;60419;48.880;18.036;2022-09-09T05:22:52;7.72;;;5.22;;
72427;SDS011;60419;48.880;18.036;2022-09-09T05:25:38;7.63;;;5.93;;
72427;SDS011;60419;48.880;18.036;2022-09-09T05:28:26;10.82;;;5.90;;
72427;SDS011;60419;48.880;18.036;2022-09-09T05:31:13;9.32;;;6.28;;
72427;SDS011;60419;48.880;18.036;2022-09-09T05:34:00;12.95;;;6.32;;
72427;SDS011;60419;48.880;18.036;2022-09-09T05:36:45;9.50;;;6.15;;
72427;SDS011;60419;48.880;18.036;2022-09-09T05:39:31;9.05;;;6.10;;
72427;SDS011;60419;48.880;18.036;2022-09-09T05:42:17;10.65;;;6.95;;
72427;SDS011;60419;48.880;18.036;2022-09-09T05:45:03;12.40;;;7.13;;
72427;SDS011;60419;48.880;18.036;2022-09-09T05:47:56;8.02;;;6.55;;
72427;SDS011;60419;48.880;18.036;2022-09-09T05:50:42;15.00;;;7.75;;
72427;SDS011;60419;48.880;18.036;2022-09-09T05:53:29;9.70;;;7.10;;
72427;SDS011;60419;48.880;18.036;2022-09-09T05:56:22;11.90;;;8.70;;
72427;SDS011;60419;48.880;18.036;2022-09-09T05:59:10;14.27;;;9.55;;
72427;SDS011;60419;48.880;18.036;2022-09-09T06:01:56;17.90;;;11.30;;
72427;SDS011;60419;48.880;18.036;2022-09-09T06:04:41;18.98;;;12.13;;
72427;SDS011;60419;48.880;18.036;2022-09-09T06:07:27;21.60;;;12.70;;
72427;SDS011;60419;48.880;18.036;2022-09-09T06:10:12;19.85;;;12.77;;
72427;SDS011;60419;48.880;18.036;2022-09-09T06:12:58;24.92;;;14.80;;
72427;SDS011;60419;48.880;18.036;2022-09-09T06:15:50;30.17;;;15.45;;
72427;SDS011;60419;48.880;18.036;2022-09-09T06:18:40;30.73;;;17.23;;
72427;SDS011;60419;48.880;18.036;2022-09-09T06:21:27;28.48;;;17.50;;
72427;SDS011;60419;48.880;18.036;2022-09-09T06:24:15;32.17;;;19.10;;
72427;SDS011;60419;48.880;18.036;2022-09-09T06:27:02;32.92;;;18.38;;
72427;SDS011;60419;48.880;18.036;2022-09-09T06:29:47;31.25;;;17.35;;
72427;SDS011;60419;48.880;18.036;2022-09-09T06:32:33;38.70;;;19.23;;
72427;SDS011;60419;48.880;18.036;2022-09-09T06:35:19;49.85;;;19.40;;
72427;SDS011;60419;48.880;18.036;2022-09-09T06:38:05;33.45;;;19.45;;
72427;SDS011;60419;48.880;18.036;2022-09-09T06:40:54;31.27;;;17.95;;
72427;SDS011;60419;48.880;18.036;2022-09-09T06:43:41;28.98;;;18.13;;
72427;SDS011;60419;48.880;18.036;2022-09-09T06:46:28;27.85;;;17.58;;
72427;SDS011;60419;48.880;18.036;2022-09-09T06:49:16;28.08;;;17.67;;
72427;SDS011;60419;48.880;18.036;2022-09-09T06:52:01;22.52;;;15.40;;
72427;SDS011;60419;48.880;18.036;2022-09-09T06:54:46;25.40;;;15.43;;
72427;SDS011;60419;48.880;18.036;2022-09-09T06:57:32;20.80;;;14.45;;
72427;SDS011;60419;48.880;18.036;2022-09-09T07:00:17;21.73;;;14.68;;
72427;SDS011;60419;48.880;18.036;2022-09-09T07:03:03;17.83;;;13.02;;
72427;SDS011;60419;48.880;18.036;2022-09-09T07:05:55;19.00;;;14.00;;
72427;SDS011;60419;48.880;18.036;2022-09-09T07:08:41;18.40;;;12.98;;
72427;SDS011;60419;48.880;18.036;2022-09-09T07:11:27;20.63;;;14.27;;
72427;SDS011;60419;48.880;18.036;2022-09-09T07:14:14;18.35;;;13.90;;
72427;SDS011;60419;48.880;18.036;2022-09-09T07:17:00;21.73;;;14.70;;
72427;SDS011;60419;48.880;18.036;2022-09-09T07:19:45;23.08;;;15.13;;
72427;SDS011;60419;48.880;18.036;2022-09-09T07:22:32;21.58;;;14.25;;
72427;SDS011;60419;48.880;18.036;2022-09-09T07:25:18;19.30;;;13.65;;
72427;SDS011;60419;48.880;18.036;2022-09-09T07:28:05;16.85;;;12.75;;
72427;SDS011;60419;48.880;18.036;2022-09-09T07:30:59;17.17;;;12.35;;
72427;SDS011;60419;48.880;18.036;2022-09-09T07:33:48;16.40;;;11.70;;
72427;SDS011;60419;48.880;18.036;2022-09-09T07:36:34;14.48;;;11.55;;
72427;SDS011;60419;48.880;18.036;2022-09-09T07:39:24;17.08;;;12.05;;
72427;SDS011;60419;48.880;18.036;2022-09-09T07:42:10;15.77;;;11.40;;
72427;SDS011;60419;48.880;18.036;2022-09-09T07:44:56;16.55;;;12.18;;
72427;SDS011;60419;48.880;18.036;2022-09-09T07:47:42;15.18;;;11.57;;
72427;SDS011;60419;48.880;18.036;2022-09-09T07:50:27;15.05;;;9.77;;
72427;SDS011;60419;48.880;18.036;2022-09-09T07:53:13;14.30;;;9.85;;
72427;SDS011;60419;48.880;18.036;2022-09-09T07:56:17;14.52;;;9.52;;
72427;SDS011;60419;48.880;18.036;2022-09-09T07:59:03;15.20;;;11.45;;
72427;SDS011;60419;48.880;18.036;2022-09-09T08:01:51;19.70;;;12.50;;
72427;SDS011;60419;48.880;18.036;2022-09-09T08:04:39;16.35;;;10.98;;
72427;SDS011;60419;48.880;18.036;2022-09-09T08:07:24;15.68;;;9.57;;
72427;SDS011;60419;48.880;18.036;2022-09-09T08:10:10;11.45;;;9.10;;
72427;SDS011;60419;48.880;18.036;2022-09-09T08:12:55;10.15;;;7.88;;
72427;SDS011;60419;48.880;18.036;2022-09-09T08:15:41;10.45;;;7.72;;
72427;SDS011;60419;48.880;18.036;2022-09-09T08:18:27;12.55;;;9.07;;
72427;SDS011;60419;48.880;18.036;2022-09-09T08:21:14;9.85;;;7.25;;
72427;SDS011;60419;48.880;18.036;2022-09-09T08:24:03;8.95;;;6.70;;
72427;SDS011;60419;48.880;18.036;2022-09-09T08:26:50;11.63;;;8.82;;
72427;SDS011;60419;48.880;18.036;2022-09-09T08:29:35;10.40;;;7.20;;
72427;SDS011;60419;48.880;18.036;2022-09-09T08:32:22;9.95;;;7.78;;
72427;SDS011;60419;48.880;18.036;2022-09-09T08:35:08;12.32;;;8.85;;
72427;SDS011;60419;48.880;18.036;2022-09-09T08:37:54;10.13;;;7.97;;
72427;SDS011;60419;48.880;18.036;2022-09-09T08:40:40;8.70;;;6.80;;
72427;SDS011;60419;48.880;18.036;2022-09-09T08:43:34;8.43;;;7.00;;
72427;SDS011;60419;48.880;18.036;2022-09-09T08:46:25;8.05;;;6.30;;
72427;SDS011;60419;48.880;18.036;2022-09-09T08:52:29;8.32;;;6.95;;
72427;SDS011;60419;48.880;18.036;2022-09-09T08:58:31;13.13;;;9.02;;
72427;SDS011;60419;48.880;18.036;2022-09-09T09:04:33;8.00;;;6.45;;
72427;SDS011;60419;48.880;18.036;2022-09-09T09:07:39;7.97;;;6.57;;
72427;SDS011;60419;48.880;18.036;2022-09-09T09:14:09;6.40;;;5.18;;
72427;SDS011;60419;48.880;18.036;2022-09-09T09:17:10;5.72;;;4.20;;
72427;SDS011;60419;48.880;18.036;2022-09-09T09:20:02;5.88;;;3.58;;
72427;SDS011;60419;48.880;18.036;2022-09-09T09:22:49;6.25;;;3.60;;
72427;SDS011;60419;48.880;18.036;2022-09-09T09:25:40;5.20;;;2.92;;
72427;SDS011;60419;48.880;18.036;2022-09-09T09:28:29;4.78;;;3.13;;
72427;SDS011;60419;48.880;18.036;2022-09-09T09:31:16;5.32;;;3.30;;
72427;SDS011;60419;48.880;18.036;2022-09-09T09:34:04;3.90;;;2.70;;
72427;SDS011;60419;48.880;18.036;2022-09-09T09:36:54;4.95;;;2.67;;
72427;SDS011;60419;48.880;18.036;2022-09-09T09:39:43;3.65;;;2.53;;
72427;SDS011;60419;48.880;18.036;2022-09-09T09:42:28;3.38;;;2.20;;
72427;SDS011;60419;48.880;18.036;2022-09-09T09:45:20;3.25;;;1.90;;
72427;SDS011;60419;48.880;18.036;2022-09-09T09:48:13;3.55;;;1.90;;
72427;SDS011;60419;48.880;18.036;2022-09-09T09:51:00;3.75;;;2.05;;
72427;SDS011;60419;48.880;18.036;2022-09-09T09:53:51;2.42;;;1.95;;
72427;SDS011;60419;48.880;18.036;2022-09-09T09:56:38;2.53;;;1.63;;
72427;SDS011;60419;48.880;18.036;2022-09-09T10:05:05;2.70;;;1.40;;
72427;SDS011;60419;48.880;18.036;2022-09-09T10:08:14;2.38;;;1.70;;
72427;SDS011;60419;48.880;18.036;2022-09-09T10:14:00;2.17;;;1.20;;
72427;SDS011;60419;48.880;18.036;2022-09-09T10:20:00;4.82;;;1.55;;
72427;SDS011;60419;48.880;18.036;2022-09-09T10:23:45;2.63;;;1.40;;
72427;SDS011;60419;48.880;18.036;2022-09-09T10:26:20;2.60;;;1.55;;
72427;SDS011;60419;48.880;18.036;2022-09-09T10:35:25;1.95;;;1.23;;
72427;SDS011;60419;48.880;18.036;2022-09-09T10:50:24;2.55;;;1.58;;
72427;SDS011;60419;48.880;18.036;2022-09-09T10:53:35;3.50;;;1.65;;
72427;SDS011;60419;48.880;18.036;2022-09-09T10:56:34;2.63;;;1.40;;
72427;SDS011;60419;48.880;18.036;2022-09-09T10:59:20;2.83;;;1.50;;
72427;SDS011;60419;48.880;18.036;2022-09-09T11:02:13;2.55;;;1.50;;
72427;SDS011;60419;48.880;18.036;2022-09-09T11:05:14;2.30;;;1.25;;
72427;SDS011;60419;48.880;18.036;2022-09-09T11:08:04;2.38;;;1.40;;
72427;SDS011;60419;48.880;18.036;2022-09-09T11:19:46;1.83;;;1.10;;
72427;SDS011;60419;48.880;18.036;2022-09-09T11:22:36;3.25;;;1.20;;
72427;SDS011;60419;48.880;18.036;2022-09-09T11:25:28;2.92;;;1.33;;
72427;SDS011;60419;48.880;18.036;2022-09-09T11:34:20;1.75;;;1.10;;
72427;SDS011;60419;48.880;18.036;2022-09-09T11:40:29;3.60;;;1.00;;
72427;SDS011;60419;48.880;18.036;2022-09-09T11:43:18;2.30;;;1.17;;
72427;SDS011;60419;48.880;18.036;2022-09-09T11:46:10;4.65;;;1.42;;
72427;SDS011;60419;48.880;18.036;2022-09-09T11:49:00;2.22;;;1.35;;
72427;SDS011;60419;48.880;18.036;2022-09-09T11:51:46;1.83;;;1.20;;
72427;SDS011;60419;48.880;18.036;2022-09-09T11:54:33;2.20;;;1.30;;
72427;SDS011;60419;48.880;18.036;2022-09-09T11:57:34;1.55;;;1.05;;
72427;SDS011;60419;48.880;18.036;2022-09-09T12:03:41;2.92;;;1.30;;
72427;SDS011;60419;48.880;18.036;2022-09-09T12:06:41;3.15;;;1.40;;
72427;SDS011;60419;48.880;18.036;2022-09-09T12:09:37;2.33;;;1.20;;
72427;SDS011;60419;48.880;18.036;2022-09-09T12:12:44;2.35;;;1.20;;
72427;SDS011;60419;48.880;18.036;2022-09-09T12:15:29;2.50;;;1.20;;
72427;SDS011;60419;48.880;18.036;2022-09-09T12:18:25;2.60;;;1.10;;
72427;SDS011;60419;48.880;18.036;2022-09-09T12:24:27;1.48;;;1.02;;
72427;SDS011;60419;48.880;18.036;2022-09-09T12:28:04;2.80;;;1.20;;
72427;SDS011;60419;48.880;18.036;2022-09-09T12:31:20;1.88;;;1.08;;
72427;SDS011;60419;48.880;18.036;2022-09-09T12:34:06;1.63;;;1.02;;
72427;SDS011;60419;48.880;18.036;2022-09-09T12:36:57;2.28;;;1.20;;
72427;SDS011;60419;48.880;18.036;2022-09-09T12:39:50;1.35;;;0.90;;
72427;SDS011;60419;48.880;18.036;2022-09-09T12:42:44;2.35;;;1.10;;
72427;SDS011;60419;48.880;18.036;2022-09-09T12:45:30;1.75;;;0.90;;
72427;SDS011;60419;48.880;18.036;2022-09-09T12:48:18;3.03;;;1.30;;
72427;SDS011;60419;48.880;18.036;2022-09-09T12:51:07;2.10;;;1.00;;
72427;SDS011;60419;48.880;18.036;2022-09-09T12:54:04;3.40;;;1.17;;
72427;SDS011;60419;48.880;18.036;2022-09-09T12:56:50;2.92;;;1.10;;
72427;SDS011;60419;48.880;18.036;2022-09-09T12:59:37;3.50;;;1.20;;
72427;SDS011;60419;48.880;18.036;2022-09-09T13:02:24;2.55;;;1.08;;
72427;SDS011;60419;48.880;18.036;2022-09-09T13:05:15;1.67;;;0.90;;
72427;SDS011;60419;48.880;18.036;2022-09-09T13:08:03;2.78;;;1.27;;
72427;SDS011;60419;48.880;18.036;2022-09-09T13:11:03;2.20;;;0.98;;
72427;SDS011;60419;48.880;18.036;2022-09-09T13:13:53;2.15;;;1.10;;
72427;SDS011;60419;48.880;18.036;2022-09-09T13:16:41;1.77;;;0.93;;
72427;SDS011;60419;48.880;18.036;2022-09-09T13:19:33;1.63;;;0.98;;
72427;SDS011;60419;48.880;18.036;2022-09-09T13:25:19;2.53;;;1.20;;
72427;SDS011;60419;48.880;18.036;2022-09-09T13:28:23;3.40;;;0.90;;
72427;SDS011;60419;48.880;18.036;2022-09-09T13:31:29;5.20;;;1.02;;
72427;SDS011;60419;48.880;18.036;2022-09-09T13:34:32;1.75;;;0.73;;
72427;SDS011;60419;48.880;18.036;2022-09-09T13:37:23;1.35;;;0.88;;
72427;SDS011;60419;48.880;18.036;2022-09-09T13:40:21;2.95;;;0.90;;
72427;SDS011;60419;48.880;18.036;2022-09-09T13:43:13;4.15;;;1.00;;
72427;SDS011;60419;48.880;18.036;2022-09-09T13:46:06;2.45;;;0.95;;
72427;SDS011;60419;48.880;18.036;2022-09-09T13:52:04;2.17;;;1.00;;
72427;SDS011;60419;48.880;18.036;2022-09-09T13:55:03;1.83;;;0.90;;
72427;SDS011;60419;48.880;18.036;2022-09-09T13:57:53;2.55;;;0.95;;
72427;SDS011;60419;48.880;18.036;2022-09-09T14:00:42;3.22;;;0.82;;
72427;SDS011;60419;48.880;18.036;2022-09-09T14:03:29;1.65;;;0.80;;
72427;SDS011;60419;48.880;18.036;2022-09-09T14:06:15;2.60;;;0.90;;
72427;SDS011;60419;48.880;18.036;2022-09-09T14:09:00;1.40;;;0.75;;
72427;SDS011;60419;48.880;18.036;2022-09-09T14:11:45;2.78;;;1.02;;
72427;SDS011;60419;48.880;18.036;2022-09-09T14:14:31;2.53;;;1.00;;
72427;SDS011;60419;48.880;18.036;2022-09-09T14:17:16;1.58;;;0.85;;
72427;SDS011;60419;48.880;18.036;2022-09-09T14:20:03;2.28;;;0.85;;
72427;SDS011;60419;48.880;18.036;2022-09-09T14:22:52;3.72;;;1.10;;
72427;SDS011;60419;48.880;18.036;2022-09-09T14:25:42;2.15;;;0.90;;
72427;SDS011;60419;48.880;18.036;2022-09-09T14:28:31;1.90;;;1.00;;
72427;SDS011;60419;48.880;18.036;2022-09-09T14:31:18;2.10;;;1.00;;
72427;SDS011;60419;48.880;18.036;2022-09-09T14:34:03;2.17;;;1.02;;
72427;SDS011;60419;48.880;18.036;2022-09-09T14:36:48;1.95;;;0.90;;
72427;SDS011;60419;48.880;18.036;2022-09-09T14:39:35;2.20;;;1.00;;
72427;SDS011;60419;48.880;18.036;2022-09-09T14:42:20;1.25;;;0.65;;
72427;SDS011;60419;48.880;18.036;2022-09-09T14:45:07;1.98;;;1.00;;
72427;SDS011;60419;48.880;18.036;2022-09-09T14:47:52;1.85;;;0.80;;
72427;SDS011;60419;48.880;18.036;2022-09-09T14:50:38;3.10;;;0.98;;
72427;SDS011;60419;48.880;18.036;2022-09-09T14:53:24;2.15;;;0.85;;
72427;SDS011;60419;48.880;18.036;2022-09-09T14:56:11;2.22;;;0.70;;
72427;SDS011;60419;48.880;18.036;2022-09-09T14:58:59;2.38;;;1.10;;
72427;SDS011;60419;48.880;18.036;2022-09-09T15:01:48;1.55;;;0.90;;
72427;SDS011;60419;48.880;18.036;2022-09-09T15:04:33;2.35;;;0.93;;
72427;SDS011;60419;48.880;18.036;2022-09-09T15:07:19;1.83;;;0.90;;
72427;SDS011;60419;48.880;18.036;2022-09-09T15:10:05;1.92;;;1.05;;
72427;SDS011;60419;48.880;18.036;2022-09-09T15:12:51;1.77;;;1.00;;
72427;SDS011;60419;48.880;18.036;2022-09-09T15:15:36;4.00;;;0.90;;
72427;SDS011;60419;48.880;18.036;2022-09-09T15:18:22;1.27;;;1.00;;
72427;SDS011;60419;48.880;18.036;2022-09-09T15:21:09;2.70;;;1.02;;
72427;SDS011;60419;48.880;18.036;2022-09-09T15:23:55;2.08;;;0.93;;
72427;SDS011;60419;48.880;18.036;2022-09-09T15:26:41;3.20;;;1.23;;
72427;SDS011;60419;48.880;18.036;2022-09-09T15:29:27;2.25;;;1.10;;
72427;SDS011;60419;48.880;18.036;2022-09-09T15:32:13;2.90;;;1.00;;
72427;SDS011;60419;48.880;18.036;2022-09-09T15:34:58;2.33;;;1.10;;
72427;SDS011;60419;48.880;18.036;2022-09-09T15:37:44;1.95;;;1.20;;
72427;SDS011;60419;48.880;18.036;2022-09-09T15:40:30;1.60;;;1.00;;
72427;SDS011;60419;48.880;18.036;2022-09-09T15:43:17;3.53;;;1.27;;
72427;SDS011;60419;48.880;18.036;2022-09-09T15:46:21;3.08;;;1.30;;
72427;SDS011;60419;48.880;18.036;2022-09-09T15:49:25;2.67;;;1.17;;
72427;SDS011;60419;48.880;18.036;2022-09-09T15:52:11;3.45;;;1.30;;
72427;SDS011;60419;48.880;18.036;2022-09-09T15:54:56;5.43;;;1.60;;
72427;SDS011;60419;48.880;18.036;2022-09-09T15:57:41;3.05;;;1.30;;
72427;SDS011;60419;48.880;18.036;2022-09-09T16:00:27;2.80;;;1.45;;
72427;SDS011;60419;48.880;18.036;2022-09-09T16:03:13;3.15;;;1.60;;
72427;SDS011;60419;48.880;18.036;2022-09-09T16:05:58;2.97;;;1.60;;
72427;SDS011;60419;48.880;18.036;2022-09-09T16:08:45;2.28;;;1.35;;
72427;SDS011;60419;48.880;18.036;2022-09-09T16:11:32;3.05;;;1.38;;
72427;SDS011;60419;48.880;18.036;2022-09-09T16:14:20;6.00;;;1.67;;
72427;SDS011;60419;48.880;18.036;2022-09-09T16:17:06;3.47;;;1.75;;
72427;SDS011;60419;48.880;18.036;2022-09-09T16:19:52;2.58;;;1.35;;
72427;SDS011;60419;48.880;18.036;2022-09-09T16:22:38;3.33;;;1.70;;
72427;SDS011;60419;48.880;18.036;2022-09-09T16:25:25;3.67;;;1.50;;
72427;SDS011;60419;48.880;18.036;2022-09-09T16:28:10;4.22;;;1.80;;
72427;SDS011;60419;48.880;18.036;2022-09-09T16:30:56;5.72;;;1.50;;
72427;SDS011;60419;48.880;18.036;2022-09-09T16:33:43;4.93;;;1.67;;
72427;SDS011;60419;48.880;18.036;2022-09-09T16:36:29;2.90;;;1.58;;
72427;SDS011;60419;48.880;18.036;2022-09-09T16:39:19;4.13;;;1.70;;
72427;SDS011;60419;48.880;18.036;2022-09-09T16:42:05;2.58;;;1.60;;
72427;SDS011;60419;48.880;18.036;2022-09-09T16:44:51;3.75;;;1.60;;
72427;SDS011;60419;48.880;18.036;2022-09-09T16:47:36;3.58;;;1.80;;
72427;SDS011;60419;48.880;18.036;2022-09-09T16:50:21;4.82;;;1.80;;
72427;SDS011;60419;48.880;18.036;2022-09-09T16:53:07;4.20;;;1.60;;
72427;SDS011;60419;48.880;18.036;2022-09-09T16:55:53;3.28;;;1.80;;
72427;SDS011;60419;48.880;18.036;2022-09-09T16:58:39;2.45;;;1.50;;
72427;SDS011;60419;48.880;18.036;2022-09-09T17:01:25;3.90;;;2.10;;
72427;SDS011;60419;48.880;18.036;2022-09-09T17:04:13;6.15;;;2.70;;
72427;SDS011;60419;48.880;18.036;2022-09-09T17:07:01;5.82;;;2.58;;
72427;SDS011;60419;48.880;18.036;2022-09-09T17:09:46;6.03;;;2.42;;
72427;SDS011;60419;48.880;18.036;2022-09-09T17:12:32;4.63;;;2.20;;
72427;SDS011;60419;48.880;18.036;2022-09-09T17:15:17;5.15;;;2.20;;
72427;SDS011;60419;48.880;18.036;2022-09-09T17:18:03;5.68;;;2.30;;
72427;SDS011;60419;48.880;18.036;2022-09-09T17:20:49;4.40;;;2.03;;
72427;SDS011;60419;48.880;18.036;2022-09-09T17:23:34;3.20;;;1.92;;
72427;SDS011;60419;48.880;18.036;2022-09-09T17:26:24;4.03;;;2.13;;
72427;SDS011;60419;48.880;18.036;2022-09-09T17:29:11;4.30;;;2.55;;
72427;SDS011;60419;48.880;18.036;2022-09-09T17:31:57;3.63;;;2.03;;
72427;SDS011;60419;48.880;18.036;2022-09-09T17:34:43;3.53;;;2.00;;
72427;SDS011;60419;48.880;18.036;2022-09-09T17:37:28;4.07;;;2.20;;
72427;SDS011;60419;48.880;18.036;2022-09-09T17:40:13;3.67;;;1.70;;
72427;SDS011;60419;48.880;18.036;2022-09-09T17:42:59;4.45;;;2.63;;
72427;SDS011;60419;48.880;18.036;2022-09-09T17:45:46;4.65;;;2.10;;
72427;SDS011;60419;48.880;18.036;2022-09-09T17:48:31;5.18;;;2.30;;
72427;SDS011;60419;48.880;18.036;2022-09-09T17:51:18;4.57;;;2.03;;
72427;SDS011;60419;48.880;18.036;2022-09-09T17:54:13;6.05;;;2.90;;
72427;SDS011;60419;48.880;18.036;2022-09-09T17:57:01;5.20;;;2.78;;
72427;SDS011;60419;48.880;18.036;2022-09-09T17:59:46;6.88;;;2.60;;
72427;SDS011;60419;48.880;18.036;2022-09-09T18:02:32;5.93;;;3.20;;
72427;SDS011;60419;48.880;18.036;2022-09-09T18:05:17;6.07;;;2.80;;
72427;SDS011;60419;48.880;18.036;2022-09-09T18:08:03;4.50;;;2.67;;
72427;SDS011;60419;48.880;18.036;2022-09-09T18:10:51;3.63;;;2.35;;
72427;SDS011;60419;48.880;18.036;2022-09-09T18:13:39;4.35;;;2.33;;
72427;SDS011;60419;48.880;18.036;2022-09-09T18:16:25;5.32;;;2.80;;
72427;SDS011;60419;48.880;18.036;2022-09-09T18:19:13;7.50;;;3.70;;
72427;SDS011;60419;48.880;18.036;2022-09-09T18:22:04;6.63;;;3.50;;
72427;SDS011;60419;48.880;18.036;2022-09-09T18:24:51;2.90;;;1.55;;
72427;SDS011;60419;48.880;18.036;2022-09-09T18:27:36;3.58;;;1.50;;